createdAt,value
2019-02-08T14:20:51.005Z,9.37
2019-02-08T14:31:25.216Z,18.83
2019-02-08T14:42:00.147Z,19.68
2019-02-08T14:52:35.531Z,19.83
2019-02-08T15:03:11.084Z,19.90
2019-02-08T15:13:46.783Z,19.81
2019-02-08T15:24:22.555Z,19.82
2019-02-08T15:34:59.393Z,19.90
2019-02-08T15:45:35.301Z,20.16
2019-02-08T15:56:11.274Z,20.23
2019-02-08T16:06:48.266Z,20.07
2019-02-08T16:17:24.265Z,19.83
2019-02-08T16:28:00.274Z,19.66
2019-02-08T16:38:36.238Z,19.69
2019-02-08T16:49:13.229Z,19.81
2019-02-08T16:59:49.244Z,19.76
2019-02-08T17:10:25.290Z,20.12
2019-02-08T17:21:01.422Z,20.42
2019-02-08T17:31:37.591Z,20.59
2019-02-08T17:42:13.819Z,20.59
2019-02-08T17:52:50.079Z,20.46
2019-02-08T18:03:26.370Z,20.39
2019-02-08T18:14:02.599Z,20.30
2019-02-08T18:24:38.822Z,20.16
2019-02-08T18:35:15.010Z,20.07
2019-02-08T18:45:51.216Z,19.98
2019-02-08T18:56:27.302Z,19.92
2019-02-08T19:07:03.412Z,19.82
2019-02-08T19:17:39.502Z,19.76
2019-02-08T19:28:15.600Z,19.68
2019-02-08T19:38:51.663Z,19.59
2019-02-08T19:49:27.680Z,19.47
2019-02-08T20:00:03.693Z,19.39
2019-02-08T20:10:39.684Z,19.32
2019-02-08T20:21:15.664Z,19.25
2019-02-08T20:31:51.923Z,19.22
2019-02-08T20:42:27.871Z,19.21
2019-02-08T20:53:03.814Z,19.13
2019-02-08T21:03:39.736Z,19.11
2019-02-08T21:14:15.635Z,19.08
2019-02-08T21:24:51.516Z,19.07
2019-02-08T21:35:27.404Z,19.01
2019-02-08T21:46:03.601Z,18.93
2019-02-08T21:56:39.486Z,18.90
2019-02-08T22:07:15.339Z,18.86
2019-02-08T22:17:51.186Z,18.81
2019-02-08T22:28:27.032Z,18.75
2019-02-08T22:39:02.849Z,18.75
2019-02-08T22:49:38.670Z,18.71
2019-02-08T23:00:14.508Z,18.70
2019-02-08T23:10:50.325Z,18.66
2019-02-08T23:21:26.124Z,18.63
2019-02-08T23:32:01.932Z,18.60
2019-02-08T23:42:37.728Z,18.58
2019-02-08T23:53:13.513Z,18.55
